Time;durP1;ratioP1;P1;durP2;ratioP2;P2;SDS_P1;SDS_P2;PMS_P1;PMS_P2;Temp;Humidity;BMP_temperature;BMP_pressure;BME280_temperature;BME280_humidity;BME280_pressure;Samples;Min_cycle;Max_cycle;Signal;HPM_P1;HPM_P2
2023/04/15 00:02:43;;;;;;;3.90;3.50;;;6.10;99.90;7.50;95319.00;;;;5123842;28;20214;-70
2023/04/15 00:05:32;;;;;;;4.83;3.80;;;6.10;99.90;7.50;95319.00;;;;5116988;27;20266;-70
2023/04/15 00:08:20;;;;;;;4.13;3.77;;;6.10;99.90;7.60;95329.00;;;;5125216;27;20221;-70
2023/04/15 00:11:09;;;;;;;4.00;3.57;;;6.00;99.90;7.60;95326.00;;;;5127836;27;20225;-71
2023/04/15 00:13:59;;;;;;;4.30;3.90;;;6.10;99.90;7.60;95318.00;;;;5125230;27;20205;-70
2023/04/15 00:16:54;;;;;;;7.70;3.90;;;6.10;99.90;7.60;95319.00;;;;5129967;27;20251;-70
2023/04/15 00:19:43;;;;;;;3.60;3.27;;;6.10;99.90;7.50;95315.00;;;;5127407;27;20833;-70
2023/04/15 00:22:32;;;;;;;4.43;3.87;;;6.10;99.90;7.60;95312.00;;;;5129205;27;20246;-70
2023/04/15 00:25:21;;;;;;;6.30;3.83;;;5.30;99.90;7.60;95312.00;;;;5122684;27;20206;-70
2023/04/15 00:28:10;;;;;;;4.70;3.90;;;6.10;99.90;7.50;95306.00;;;;5127101;27;20670;-70
2023/04/15 00:31:00;;;;;;;4.33;3.93;;;6.30;99.90;7.60;95316.00;;;;5126358;27;20245;-70
2023/04/15 00:33:48;;;;;;;4.87;4.37;;;6.00;99.90;7.60;95315.00;;;;5119549;27;20201;-70
2023/04/15 00:36:37;;;;;;;4.60;4.20;;;6.10;99.90;7.50;95322.00;;;;5126400;27;20213;-71
2023/04/15 00:39:26;;;;;;;3.57;3.27;;;6.00;99.90;7.50;95317.00;;;;5123076;27;20203;-70
2023/04/15 00:42:15;;;;;;;2.70;2.50;;;6.10;99.90;7.50;95311.00;;;;5102744;28;20221;-71
2023/04/15 00:45:05;;;;;;;3.10;2.77;;;6.10;99.90;7.50;95309.00;;;;5109972;28;20207;-71
2023/04/15 00:47:56;;;;;;;3.63;3.33;;;6.00;99.90;7.50;95316.00;;;;5111207;28;20203;-70
2023/04/15 00:50:45;;;;;;;3.63;3.33;;;6.00;99.90;7.50;95318.00;;;;5107259;28;20547;-70
2023/04/15 00:53:33;;;;;;;4.40;4.00;;;6.00;99.90;7.40;95309.00;;;;5106337;28;20191;-71
2023/04/15 00:56:23;;;;;;;3.67;3.37;;;6.00;99.90;7.40;95318.00;;;;5109388;28;20234;-71
2023/04/15 00:59:12;;;;;;;2.93;2.73;;;6.00;99.90;7.40;95312.00;;;;5103127;28;20230;-70
2023/04/15 01:02:01;;;;;;;4.60;4.20;;;5.90;99.90;7.40;95312.00;;;;5107161;28;20272;-70
2023/04/15 01:04:51;;;;;;;7.23;3.40;;;5.90;99.90;7.40;95308.00;;;;5110415;28;20688;-70
2023/04/15 01:07:40;;;;;;;4.30;3.90;;;5.90;99.90;7.50;95319.00;;;;5103650;28;20230;-70
2023/04/15 01:10:28;;;;;;;4.27;3.93;;;5.90;99.90;7.40;95306.00;;;;5105457;27;20219;-71
2023/04/15 01:13:17;;;;;;;4.23;3.67;;;5.90;99.90;7.40;95309.00;;;;5109285;27;20799;-71
2023/04/15 01:16:07;;;;;;;5.00;4.10;;;5.90;99.90;7.40;95306.00;;;;5100479;28;20244;-71
2023/04/15 01:18:56;;;;;;;3.93;3.53;;;5.90;99.90;7.40;95304.00;;;;5110944;27;20195;-71
2023/04/15 01:21:47;;;;;;;3.30;3.00;;;5.90;99.90;7.40;95314.00;;;;5104089;28;20214;-71
2023/04/15 01:24:37;;;;;;;4.90;4.23;;;5.90;99.90;7.40;95310.00;;;;5110685;28;20191;-70
2023/04/15 01:27:27;;;;;;;4.33;3.00;;;5.90;99.90;7.40;95313.00;;;;5101024;28;20248;-70
2023/04/15 01:30:16;;;;;;;4.70;4.30;;;5.90;99.90;7.40;95316.00;;;;5109459;27;20215;-70
2023/04/15 01:33:05;;;;;;;4.00;3.70;;;5.90;99.90;7.40;95314.00;;;;5102970;28;20192;-70
2023/04/15 01:35:54;;;;;;;4.90;4.50;;;5.80;99.90;7.40;95313.00;;;;5105231;28;20195;-70
2023/04/15 01:38:43;;;;;;;5.30;4.87;;;5.90;99.90;7.30;95310.00;;;;5109690;28;20608;-71
2023/04/15 01:41:32;;;;;;;4.90;4.40;;;5.80;99.90;7.30;95319.00;;;;5104061;28;20210;-71
2023/04/15 01:44:22;;;;;;;3.77;3.47;;;5.80;99.90;7.10;95313.00;;;;5106205;28;20206;-71
2023/04/15 01:47:11;;;;;;;3.77;3.47;;;5.80;99.90;7.10;95312.00;;;;5105887;28;20234;-71
2023/04/15 01:50:00;;;;;;;6.23;4.23;;;5.80;99.90;7.10;95308.00;;;;5104886;28;20222;-70
2023/04/15 01:52:48;;;;;;;3.50;3.20;;;5.70;99.90;7.00;95306.00;;;;5105008;27;20219;-71
2023/04/15 01:55:38;;;;;;;5.33;4.83;;;5.70;99.90;6.80;95311.00;;;;5104013;28;20214;-70
2023/04/15 01:58:26;;;;;;;4.23;3.83;;;5.70;99.90;6.90;95313.00;;;;5109482;28;20213;-70
2023/04/15 02:01:18;;;;;;;5.03;4.07;;;5.70;99.90;6.90;95314.00;;;;5105536;28;20263;-70
2023/04/15 02:04:08;;;;;;;4.80;4.40;;;5.70;99.90;7.10;95324.00;;;;5108158;28;20206;-71
2023/04/15 02:06:57;;;;;;;4.03;3.70;;;5.70;99.90;7.10;95318.00;;;;5106555;28;20411;-70
2023/04/15 02:09:46;;;;;;;3.73;3.43;;;5.70;99.90;7.10;95312.00;;;;5107144;28;20221;-70
2023/04/15 02:12:35;;;;;;;4.70;4.10;;;5.60;99.90;7.10;95325.00;;;;5109124;28;20226;-70
2023/04/15 02:15:23;;;;;;;6.80;4.40;;;5.70;99.90;7.20;95323.00;;;;5097630;28;20204;-70
2023/04/15 02:18:13;;;;;;;6.10;5.03;;;5.70;99.90;7.10;95327.00;;;;5107941;28;20787;-70
2023/04/15 02:21:04;;;;;;;5.10;4.60;;;5.70;99.90;7.20;95323.00;;;;5104331;28;20234;-70
2023/04/15 02:23:53;;;;;;;4.57;4.17;;;5.70;99.90;7.10;95324.00;;;;5109489;28;20195;-70
2023/04/15 02:26:42;;;;;;;6.07;4.57;;;5.70;99.90;7.10;95325.00;;;;5107765;28;20198;-70
2023/04/15 02:29:32;;;;;;;6.80;4.40;;;5.70;99.90;7.20;95325.00;;;;5108662;28;20242;-70
2023/04/15 02:32:23;;;;;;;5.27;4.27;;;5.70;99.90;7.20;95325.00;;;;5108094;28;20218;-70
2023/04/15 02:35:13;;;;;;;4.70;4.30;;;5.70;99.90;7.10;95324.00;;;;5099084;28;20202;-70
2023/04/15 02:38:02;;;;;;;5.40;4.90;;;5.70;99.90;7.00;95321.00;;;;5095087;28;20199;-70
2023/04/15 02:40:50;;;;;;;4.67;4.23;;;5.70;99.90;7.00;95328.00;;;;5122264;27;20194;-70
2023/04/15 02:43:39;;;;;;;6.03;5.10;;;5.70;99.90;6.80;95324.00;;;;5120579;27;20221;-70
2023/04/15 02:46:28;;;;;;;5.63;4.90;;;5.70;99.90;7.00;95329.00;;;;5121405;27;20248;-70
2023/04/15 02:49:17;;;;;;;4.90;4.17;;;5.70;99.90;7.00;95324.00;;;;5123753;27;20233;-70
2023/04/15 02:52:07;;;;;;;5.53;4.93;;;5.70;99.90;7.00;95317.00;;;;5123033;27;20259;-70
2023/04/15 02:54:59;;;;;;;5.50;5.00;;;5.60;99.90;6.80;95329.00;;;;5117393;27;20202;-70
2023/04/15 02:57:48;;;;;;;5.37;4.87;;;5.60;99.90;6.80;95335.00;;;;5119053;27;20562;-70
2023/04/15 03:00:36;;;;;;;6.20;5.70;;;5.60;99.90;7.00;95329.00;;;;5121388;27;20669;-70
2023/04/15 03:03:25;;;;;;;6.33;5.70;;;5.60;99.90;7.10;95329.00;;;;5127591;27;20208;-70
2023/04/15 03:06:14;;;;;;;5.23;4.73;;;5.60;99.90;7.10;95327.00;;;;5125839;27;20212;-70
2023/04/15 03:09:04;;;;;;;5.80;5.27;;;5.60;99.90;7.10;95326.00;;;;5122714;27;20190;-70
2023/04/15 03:11:53;;;;;;;7.03;5.17;;;5.60;99.90;7.10;95325.00;;;;5121399;27;20214;-70
2023/04/15 03:14:42;;;;;;;8.97;5.30;;;5.60;99.90;7.10;95321.00;;;;5126939;27;20197;-70
2023/04/15 03:17:31;;;;;;;6.67;5.83;;;5.60;99.90;7.10;95337.00;;;;5125994;27;20202;-70
2023/04/15 03:20:19;;;;;;;5.73;5.17;;;5.60;99.90;7.10;95333.00;;;;5121870;27;20860;-70
2023/04/15 03:23:08;;;;;;;11.67;5.40;;;5.70;99.90;7.10;95339.00;;;;5119352;27;20217;-70
2023/04/15 03:26:01;;;;;;;9.67;5.70;;;5.60;99.90;7.10;95330.00;;;;5121722;27;20194;-70
2023/04/15 03:28:50;;;;;;;7.23;5.20;;;5.70;99.90;7.00;95336.00;;;;5118313;27;20261;-70
2023/04/15 03:31:39;;;;;;;7.43;5.23;;;5.70;99.90;7.10;95329.00;;;;5124799;27;20258;-70
2023/04/15 03:34:28;;;;;;;6.13;4.97;;;5.70;99.90;7.10;95333.00;;;;5119736;28;20202;-70
2023/04/15 03:37:16;;;;;;;10.50;5.20;;;5.70;99.90;7.10;95336.00;;;;5124132;28;20193;-70
2023/04/15 03:40:07;;;;;;;6.70;5.60;;;5.70;99.90;7.20;95339.00;;;;5122715;28;20202;-70
2023/04/15 03:42:57;;;;;;;5.77;4.77;;;5.70;99.90;7.20;95336.00;;;;5130860;27;20262;-70
2023/04/15 03:45:46;;;;;;;5.27;4.50;;;5.70;99.90;7.20;95340.00;;;;5127071;27;20212;-70
2023/04/15 03:48:35;;;;;;;5.87;4.70;;;5.70;99.90;7.10;95344.00;;;;5131858;27;20286;-70
2023/04/15 03:51:23;;;;;;;4.97;4.47;;;5.70;99.90;7.10;95344.00;;;;5124828;27;20278;-70
2023/04/15 03:54:14;;;;;;;6.57;5.53;;;5.70;99.90;7.20;95345.00;;;;5126386;27;20206;-70
2023/04/15 03:57:02;;;;;;;5.80;5.20;;;5.70;99.90;7.20;95356.00;;;;5126310;27;20684;-70
2023/04/15 03:59:52;;;;;;;5.47;4.97;;;5.70;99.90;7.20;95353.00;;;;5121324;27;20250;-70
2023/04/15 04:02:41;;;;;;;6.03;5.27;;;5.70;99.90;7.20;95354.00;;;;5128445;27;20221;-70
2023/04/15 04:05:30;;;;;;;6.43;5.67;;;5.70;99.90;7.20;95351.00;;;;5124851;27;20203;-70
2023/04/15 04:08:20;;;;;;;5.27;4.77;;;5.70;99.90;7.20;95358.00;;;;5126860;27;20786;-70
2023/04/15 04:11:09;;;;;;;5.17;4.67;;;5.70;99.90;7.10;95348.00;;;;5128301;27;20218;-70
2023/04/15 04:13:57;;;;;;;6.00;5.40;;;5.70;99.90;7.10;95352.00;;;;5126459;27;20242;-70
2023/04/15 04:16:47;;;;;;;5.87;5.27;;;5.70;99.90;7.10;95351.00;;;;5125843;27;20217;-70
2023/04/15 04:19:36;;;;;;;5.60;4.70;;;5.70;99.90;7.10;95356.00;;;;5127619;27;20266;-70
2023/04/15 04:22:25;;;;;;;5.70;4.83;;;5.70;99.90;7.10;95346.00;;;;5134003;27;20247;-70
2023/04/15 04:25:14;;;;;;;4.80;4.40;;;5.60;99.90;7.20;95356.00;;;;5127303;27;20694;-70
2023/04/15 04:28:02;;;;;;;4.77;3.83;;;5.70;99.90;7.20;95361.00;;;;5122491;27;20591;-71
2023/04/15 04:30:51;;;;;;;7.57;5.23;;;5.70;99.90;7.20;95355.00;;;;5119471;27;20221;-70
2023/04/15 04:33:41;;;;;;;6.17;5.17;;;5.70;99.90;7.20;95364.00;;;;5127431;27;20803;-70
2023/04/15 04:36:30;;;;;;;8.97;6.97;;;5.70;99.90;7.20;95365.00;;;;5127880;27;20314;-70
2023/04/15 04:39:19;;;;;;;8.13;7.33;;;5.70;99.90;7.20;95366.00;;;;5124798;27;20331;-71
2023/04/15 04:42:07;;;;;;;8.40;6.80;;;5.70;99.90;7.20;95369.00;;;;5127706;27;20214;-70
2023/04/15 04:44:56;;;;;;;8.87;6.57;;;5.70;99.90;7.30;95369.00;;;;5124617;27;20274;-70
2023/04/15 04:47:45;;;;;;;7.70;6.40;;;5.70;99.90;7.10;95373.00;;;;5129991;27;20286;-70
2023/04/15 04:50:35;;;;;;;6.27;5.63;;;5.80;99.90;7.20;95374.00;;;;5126777;27;20624;-70
2023/04/15 04:53:24;;;;;;;7.27;6.00;;;5.70;99.90;7.30;95373.00;;;;5128613;27;20254;-70
2023/04/15 04:56:13;;;;;;;7.97;6.77;;;5.80;99.90;7.20;95381.00;;;;5127731;27;20206;-70
2023/04/15 04:59:01;;;;;;;6.80;6.10;;;5.80;99.90;7.20;95387.00;;;;5122897;27;20206;-70
2023/04/15 05:01:50;;;;;;;7.93;6.67;;;5.80;99.90;7.10;95390.00;;;;5123978;27;20708;-70
2023/04/15 05:04:40;;;;;;;7.27;6.20;;;5.80;99.90;7.10;95391.00;;;;5129478;27;20201;-70
2023/04/15 05:07:30;;;;;;;6.30;5.70;;;5.80;99.90;7.20;95385.00;;;;5125127;27;20203;-70
2023/04/15 05:10:19;;;;;;;7.93;6.97;;;5.70;99.90;7.20;95397.00;;;;5129778;27;20206;-70
2023/04/15 05:13:08;;;;;;;9.63;6.50;;;5.80;99.90;7.10;95406.00;;;;5120942;27;20194;-71
2023/04/15 05:15:56;;;;;;;7.27;6.10;;;5.80;99.90;7.20;95404.00;;;;5125513;27;20270;-70
2023/04/15 05:18:45;;;;;;;6.53;5.83;;;5.80;99.90;7.30;95401.00;;;;5127691;27;20204;-71
2023/04/15 05:21:34;;;;;;;7.73;6.17;;;5.80;99.90;7.20;95397.00;;;;5123670;27;20648;-70
2023/04/15 05:24:24;;;;;;;8.33;5.90;;;5.80;99.90;7.30;95402.00;;;;5126194;27;20206;-69
2023/04/15 05:27:13;;;;;;;7.23;5.77;;;5.80;99.90;7.40;95411.00;;;;5126648;27;20201;-70
2023/04/15 05:30:02;;;;;;;6.33;5.70;;;5.80;99.90;7.40;95406.00;;;;5125505;27;20199;-70
2023/04/15 05:32:51;;;;;;;9.50;6.40;;;5.90;99.90;7.50;95415.00;;;;5124927;27;20233;-70
2023/04/15 05:35:40;;;;;;;9.93;5.43;;;5.90;99.90;7.40;95416.00;;;;5128403;27;20205;-70
2023/04/15 05:38:28;;;;;;;6.67;5.87;;;5.90;99.90;7.30;95422.00;;;;5128972;27;20194;-70
2023/04/15 05:41:18;;;;;;;6.73;5.10;;;5.90;99.90;7.20;95432.00;;;;5123415;27;20709;-70
2023/04/15 05:44:07;;;;;;;11.07;5.63;;;5.90;99.90;7.30;95434.00;;;;5125763;27;20193;-70
2023/04/15 05:46:56;;;;;;;9.50;5.90;;;5.90;99.90;7.40;95431.00;;;;5129811;27;20206;-70
2023/04/15 05:49:45;;;;;;;5.93;5.07;;;5.90;99.90;7.50;95427.00;;;;5125926;27;20214;-70
2023/04/15 05:52:34;;;;;;;5.27;4.60;;;6.00;99.90;7.60;95430.00;;;;5123580;27;20222;-71
2023/04/15 05:55:22;;;;;;;11.43;4.67;;;6.00;99.90;7.60;95434.00;;;;5124796;27;20247;-70
2023/04/15 05:58:12;;;;;;;6.63;5.07;;;6.00;99.90;7.70;95442.00;;;;5127225;27;20708;-70
2023/04/15 06:01:01;;;;;;;9.13;4.67;;;6.00;99.90;7.80;95449.00;;;;5124123;27;20221;-70
2023/04/15 06:03:50;;;;;;;5.93;5.33;;;6.10;99.90;7.80;95447.00;;;;5128945;27;20264;-70
2023/04/15 06:06:39;;;;;;;6.50;4.83;;;6.20;99.90;7.90;95445.00;;;;5132662;27;20201;-71
2023/04/15 06:09:28;;;;;;;7.47;5.00;;;6.20;99.90;8.00;95453.00;;;;5122259;27;20222;-71
2023/04/15 06:12:17;;;;;;;5.60;5.00;;;6.30;99.90;8.00;95445.00;;;;5087735;28;20239;-71
2023/04/15 06:15:10;;;;;;;12.10;4.73;;;6.30;99.90;8.10;95451.00;;;;5109493;27;20199;-71
2023/04/15 06:17:58;;;;;;;6.50;4.83;;;6.40;99.90;8.20;95458.00;;;;5113108;27;20194;-71
2023/04/15 06:20:47;;;;;;;11.23;5.20;;;6.40;99.90;8.10;95464.00;;;;5110411;27;20194;-71
2023/04/15 06:23:36;;;;;;;5.90;4.97;;;6.50;99.90;8.20;95462.00;;;;5109301;27;20203;-71
2023/04/15 06:26:25;;;;;;;8.37;4.07;;;6.50;99.90;8.20;95464.00;;;;5100460;28;20206;-71
2023/04/15 06:29:14;;;;;;;7.30;5.00;;;6.60;99.90;8.20;95465.00;;;;5105601;27;20228;-72
2023/04/15 06:32:04;;;;;;;7.27;5.53;;;6.60;99.90;8.20;95471.00;;;;5102013;27;20222;-72
2023/04/15 06:34:53;;;;;;;11.27;5.30;;;6.60;99.90;8.30;95468.00;;;;5104392;27;20264;-72
2023/04/15 06:37:41;;;;;;;7.23;5.03;;;6.60;99.90;8.40;95485.00;;;;5101394;27;20202;-72
2023/04/15 06:40:30;;;;;;;7.90;6.10;;;6.70;99.90;8.40;95481.00;;;;5094596;27;20203;-72
2023/04/15 06:43:19;;;;;;;11.03;5.73;;;6.70;99.90;8.50;95477.00;;;;5105874;28;20228;-72
2023/04/15 06:46:08;;;;;;;9.97;5.53;;;6.70;99.90;8.70;95495.00;;;;5100104;28;20207;-71
2023/04/15 06:48:58;;;;;;;6.33;4.83;;;6.80;99.90;8.60;95492.00;;;;5103336;27;20193;-71
2023/04/15 06:51:47;;;;;;;13.17;4.90;;;6.90;99.90;8.50;95497.00;;;;5096036;28;20593;-71
2023/04/15 06:54:36;;;;;;;6.43;5.80;;;6.90;99.90;8.50;95495.00;;;;5102554;27;20216;-71
2023/04/15 06:57:25;;;;;;;4.80;4.13;;;6.90;99.90;8.50;95497.00;;;;5107315;27;20203;-71
2023/04/15 07:00:14;;;;;;;5.43;4.23;;;6.90;99.90;8.40;95503.00;;;;5101701;27;20210;-71
2023/04/15 07:03:03;;;;;;;10.27;6.57;;;6.90;99.90;8.40;95499.00;;;;5115296;27;20201;-71
2023/04/15 07:05:54;;;;;;;13.27;6.63;;;6.90;99.90;8.40;95508.00;;;;5112808;27;20301;-71
2023/04/15 07:08:42;;;;;;;10.80;7.37;;;6.80;99.90;8.30;95500.00;;;;5111629;27;20676;-71
2023/04/15 07:11:31;;;;;;;10.17;5.93;;;6.80;99.90;8.40;95502.00;;;;5103603;27;20226;-71
2023/04/15 07:14:20;;;;;;;9.00;5.67;;;6.80;99.90;8.30;95519.00;;;;5101745;27;20240;-71
2023/04/15 07:17:10;;;;;;;6.57;5.07;;;6.60;99.90;8.30;95517.00;;;;5103645;27;20207;-71
2023/04/15 07:19:58;;;;;;;6.57;5.20;;;6.80;99.90;8.30;95520.00;;;;5099966;28;20721;-71
2023/04/15 07:22:48;;;;;;;10.97;5.63;;;6.80;99.90;8.10;95521.00;;;;5115154;27;20224;-71
2023/04/15 07:25:37;;;;;;;9.53;6.47;;;6.70;99.90;8.10;95520.00;;;;5101561;27;20199;-71
2023/04/15 07:28:26;;;;;;;11.73;7.53;;;6.70;99.90;8.30;95525.00;;;;5111178;27;20201;-70
2023/04/15 07:31:15;;;;;;;15.30;7.17;;;6.70;99.90;8.40;95525.00;;;;5112682;27;20299;-71
2023/04/15 07:34:04;;;;;;;15.03;5.77;;;6.70;99.90;8.50;95521.00;;;;5100981;28;20202;-71
2023/04/15 07:36:52;;;;;;;14.27;8.37;;;6.70;99.90;8.50;95535.00;;;;5104000;28;20190;-71
2023/04/15 07:39:42;;;;;;;7.57;4.83;;;6.80;99.90;8.60;95519.00;;;;5105931;28;20692;-72
2023/04/15 07:42:31;;;;;;;10.80;3.87;;;6.90;99.90;8.60;95529.00;;;;5102297;28;20307;-71
2023/04/15 07:45:20;;;;;;;10.67;4.43;;;6.90;99.90;8.80;95534.00;;;;5102656;28;20700;-71
2023/04/15 07:48:09;;;;;;;5.47;4.57;;;7.00;99.90;9.00;95535.00;;;;5109091;28;20210;-71
2023/04/15 07:51:01;;;;;;;10.30;4.90;;;7.10;99.90;9.10;95531.00;;;;5109632;28;20214;-72
2023/04/15 07:53:50;;;;;;;8.73;4.70;;;7.30;99.90;9.30;95536.00;;;;5110593;28;20226;-71
2023/04/15 07:56:40;;;;;;;9.57;6.93;;;7.40;99.90;9.70;95536.00;;;;5106491;28;20202;-71
2023/04/15 07:59:32;;;;;;;13.93;6.03;;;7.50;99.90;9.80;95540.00;;;;5109265;28;20210;-71
2023/04/15 08:02:21;;;;;;;12.17;5.20;;;7.70;99.90;9.80;95550.00;;;;5102538;28;20218;-71
2023/04/15 08:05:10;;;;;;;18.53;11.37;;;8.00;99.90;9.70;95556.00;;;;5100345;28;20842;-71
2023/04/15 08:08:00;;;;;;;20.67;11.50;;;7.90;99.90;9.80;95556.00;;;;5109569;28;20190;-71
2023/04/15 08:10:49;;;;;;;17.37;10.23;;;7.90;99.90;9.80;95559.00;;;;5101102;28;20244;-71
2023/04/15 08:13:40;;;;;;;23.77;13.07;;;8.00;99.90;9.80;95559.00;;;;5103567;28;20717;-71
2023/04/15 08:16:29;;;;;;;14.87;7.83;;;8.00;99.90;10.00;95558.00;;;;5104113;28;20722;-71
2023/04/15 08:19:18;;;;;;;5.83;5.33;;;8.10;99.90;10.10;95556.00;;;;5104372;28;20846;-71
2023/04/15 08:22:07;;;;;;;18.80;11.27;;;8.20;99.90;10.00;95558.00;;;;5102363;28;20665;-71
2023/04/15 08:24:56;;;;;;;14.10;7.27;;;8.20;99.90;10.10;95562.00;;;;5098519;28;20810;-71
2023/04/15 08:27:45;;;;;;;19.13;12.30;;;8.30;99.90;10.10;95575.00;;;;5107513;27;20211;-71
2023/04/15 08:30:35;;;;;;;8.30;4.50;;;8.30;99.90;10.00;95575.00;;;;5107670;27;20213;-70
2023/04/15 08:33:24;;;;;;;11.53;7.63;;;8.30;99.90;10.00;95576.00;;;;5115634;27;20226;-71
2023/04/15 08:36:13;;;;;;;7.87;4.90;;;8.30;99.90;9.70;95578.00;;;;5104880;28;20212;-71
2023/04/15 08:39:03;;;;;;;7.40;5.47;;;8.30;99.90;10.10;95581.00;;;;5106689;28;20240;-71
2023/04/15 08:41:57;;;;;;;8.00;4.37;;;8.30;99.90;10.20;95580.00;;;;5108922;28;20242;-71
2023/04/15 08:44:48;;;;;;;5.83;3.80;;;8.40;99.90;10.20;95586.00;;;;5109931;28;21058;-70
2023/04/15 08:47:39;;;;;;;3.00;2.70;;;8.40;99.90;10.20;95593.00;;;;5109295;28;20206;-69
2023/04/15 08:50:31;;;;;;;2.40;2.20;;;8.40;99.90;10.10;95582.00;;;;5109540;28;20207;-69
2023/04/15 08:53:20;;;;;;;5.70;2.57;;;8.50;99.90;10.40;95585.00;;;;5110398;27;20265;-69
2023/04/15 08:56:12;;;;;;;3.07;2.07;;;8.50;99.90;10.40;95594.00;;;;5112858;27;20202;-70
2023/04/15 08:59:02;;;;;;;5.50;2.67;;;8.60;99.90;10.70;95597.00;;;;5108682;27;20669;-70
2023/04/15 09:01:51;;;;;;;2.67;2.47;;;8.70;99.90;10.70;95593.00;;;;5103722;27;20241;-70
2023/04/15 09:04:41;;;;;;;7.37;2.93;;;8.70;99.90;10.90;95596.00;;;;5103764;27;20207;-71
2023/04/15 09:07:30;;;;;;;4.90;2.37;;;8.80;99.90;10.70;95592.00;;;;5105541;28;20241;-70
2023/04/15 09:10:19;;;;;;;3.60;2.13;;;8.90;99.90;10.60;95596.00;;;;5106842;27;20263;-71
2023/04/15 09:13:08;;;;;;;4.40;1.87;;;8.90;99.90;10.60;95595.00;;;;5110085;27;20229;-71
2023/04/15 09:15:57;;;;;;;5.87;2.63;;;9.00;99.90;11.00;95600.00;;;;5099639;27;20207;-71
2023/04/15 09:18:46;;;;;;;1.90;1.80;;;9.00;99.90;10.90;95600.00;;;;5104738;27;20214;-71
2023/04/15 09:21:36;;;;;;;4.30;2.90;;;9.10;99.90;11.00;95606.00;;;;5120410;27;20704;-71
2023/04/15 09:24:26;;;;;;;3.60;2.03;;;9.20;99.90;11.10;95605.00;;;;5127318;27;20210;-71
2023/04/15 09:27:18;;;;;;;2.17;1.93;;;9.30;99.90;10.50;95597.00;;;;5126436;27;20212;-71
2023/04/15 09:30:10;;;;;;;1.90;1.80;;;9.20;99.90;11.10;95605.00;;;;5124427;27;20198;-72
2023/04/15 09:33:03;;;;;;;4.40;2.00;;;9.30;99.90;11.50;95605.00;;;;5133037;27;20232;-71
2023/04/15 09:36:02;;;;;;;2.47;1.40;;;9.40;99.90;11.70;95607.00;;;;5124782;27;20580;-71
2023/04/15 09:38:57;;;;;;;1.60;1.50;;;9.50;99.90;11.50;95608.00;;;;5120005;27;20728;-71
2023/04/15 09:41:46;;;;;;;2.17;2.03;;;9.60;99.90;11.70;95615.00;;;;5125527;27;20278;-71
2023/04/15 09:44:35;;;;;;;2.43;2.23;;;9.60;99.90;11.70;95620.00;;;;5126110;27;20214;-71
2023/04/15 09:47:31;;;;;;;2.17;2.00;;;9.70;99.90;11.90;95621.00;;;;5126414;27;20198;-71
2023/04/15 09:50:20;;;;;;;5.00;1.80;;;9.80;99.90;11.90;95615.00;;;;5111278;27;20194;-71
2023/04/15 09:53:10;;;;;;;2.93;2.63;;;9.80;99.90;11.90;95622.00;;;;5129363;27;20226;-71
2023/04/15 09:56:01;;;;;;;2.97;2.77;;;9.90;99.90;11.70;95623.00;;;;5125937;27;20190;-71
2023/04/15 09:58:57;;;;;;;3.17;2.87;;;10.00;99.90;11.70;95628.00;;;;5125844;27;20206;-71
2023/04/15 10:01:46;;;;;;;3.03;2.67;;;9.90;99.90;12.00;95625.00;;;;5129599;27;20236;-71
2023/04/15 10:04:40;;;;;;;4.97;3.10;;;10.00;99.90;12.00;95626.00;;;;5125423;27;20202;-72
2023/04/15 10:07:29;;;;;;;2.30;2.10;;;10.00;99.90;12.20;95630.00;;;;5125678;27;20264;-70
2023/04/15 10:10:19;;;;;;;2.57;2.37;;;10.00;99.90;12.30;95623.00;;;;5129790;27;20205;-71
2023/04/15 10:13:10;;;;;;;2.43;2.30;;;10.10;99.90;12.30;95629.00;;;;5124296;27;20755;-71
2023/04/15 10:16:01;;;;;;;3.17;2.60;;;10.20;99.90;12.30;95630.00;;;;5109882;27;20711;-71
2023/04/15 10:18:56;;;;;;;2.00;1.90;;;10.30;99.90;12.20;95628.00;;;;5095525;27;20234;-71
2023/04/15 10:21:46;;;;;;;3.10;2.27;;;10.30;99.90;12.20;95629.00;;;;5129036;27;20213;-71
2023/04/15 10:24:36;;;;;;;2.63;2.20;;;10.30;99.90;11.80;95634.00;;;;5121490;27;20202;-71
2023/04/15 10:27:25;;;;;;;2.77;2.43;;;10.20;99.90;11.30;95633.00;;;;5127803;27;20259;-72
2023/04/15 10:30:16;;;;;;;2.33;2.13;;;10.10;99.90;11.20;95629.00;;;;5127082;27;20202;-71
2023/04/15 10:33:06;;;;;;;2.50;2.30;;;10.00;99.90;11.10;95632.00;;;;5126097;27;20216;-71
2023/04/15 10:35:56;;;;;;;2.97;2.33;;;9.80;99.90;10.80;95643.00;;;;5129252;27;20206;-71
2023/04/15 10:38:46;;;;;;;2.70;2.50;;;9.70;99.90;10.70;95635.00;;;;5132333;27;20201;-70
2023/04/15 10:41:36;;;;;;;1.90;1.80;;;9.50;99.90;9.90;95622.00;;;;5126645;27;20267;-72
2023/04/15 10:44:26;;;;;;;2.37;2.17;;;9.30;99.90;10.50;95637.00;;;;5130601;27;20209;-66
2023/04/15 10:47:19;;;;;;;2.93;2.53;;;9.20;99.90;10.90;95640.00;;;;5125657;27;20234;-68
2023/04/15 10:50:08;;;;;;;2.40;2.20;;;9.10;99.90;11.00;95644.00;;;;5131071;27;20206;-67
2023/04/15 10:52:58;;;;;;;3.23;2.83;;;9.20;99.90;11.00;95637.00;;;;5126427;27;20218;-67
2023/04/15 10:55:46;;;;;;;1.90;1.80;;;9.20;99.90;10.90;95629.00;;;;5124761;27;20202;-67
2023/04/15 10:58:42;;;;;;;2.43;2.23;;;9.30;99.90;10.80;95630.00;;;;5124960;27;20212;-68
2023/04/15 11:01:56;;;;;;;2.53;2.33;;;9.40;99.90;11.30;95636.00;;;;5124732;27;20222;-67
2023/04/15 11:04:57;;;;;;;2.70;2.50;;;9.40;99.90;10.70;95632.00;;;;5125869;27;20196;-68
2023/04/15 11:07:53;;;;;;;2.53;2.30;;;9.50;99.90;10.80;95622.00;;;;5133654;27;20274;-68
2023/04/15 11:10:53;;;;;;;5.03;2.00;;;9.50;99.90;10.80;95629.00;;;;5125926;27;20194;-71
2023/04/15 11:13:49;;;;;;;2.17;1.67;;;9.60;99.90;11.50;95641.00;;;;5124218;27;20222;-69
2023/04/15 11:16:44;;;;;;;2.57;1.90;;;9.60;99.90;11.40;95642.00;;;;5127134;27;20202;-69
2023/04/15 11:19:37;;;;;;;3.83;3.47;;;9.70;99.90;12.10;95645.00;;;;5123441;27;20744;-69
2023/04/15 11:22:28;;;;;;;2.70;2.50;;;9.90;99.90;12.30;95639.00;;;;5123990;27;20293;-69
2023/04/15 11:25:24;;;;;;;2.47;2.20;;;10.10;99.90;12.20;95655.00;;;;5126946;27;20282;-69
2023/04/15 11:28:13;;;;;;;2.50;2.30;;;10.20;99.90;12.40;95649.00;;;;5124373;27;20693;-69
2023/04/15 11:31:13;;;;;;;2.53;2.30;;;10.30;99.90;12.20;95652.00;;;;5125146;27;20271;-69
2023/04/15 11:34:03;;;;;;;3.87;2.23;;;10.30;99.90;12.10;95661.00;;;;5122010;27;20217;-69
2023/04/15 11:36:52;;;;;;;1.83;1.60;;;10.40;99.90;11.90;95648.00;;;;5127575;27;20254;-69
2023/04/15 11:39:43;;;;;;;1.83;1.73;;;10.40;99.90;12.20;95657.00;;;;5107851;28;20198;-69
2023/04/15 11:42:31;;;;;;;3.80;1.60;;;10.30;99.90;12.20;95650.00;;;;5109111;28;20873;-70
2023/04/15 11:45:27;;;;;;;1.90;1.80;;;10.40;99.90;12.00;95655.00;;;;5114777;28;20221;-69
2023/04/15 11:48:16;;;;;;;1.70;1.60;;;10.30;99.90;11.80;95659.00;;;;5114110;27;20657;-72
2023/04/15 11:51:07;;;;;;;2.50;1.63;;;10.20;99.90;11.80;95658.00;;;;5112065;28;20214;-70
2023/04/15 11:53:56;;;;;;;3.50;1.87;;;10.10;99.90;11.90;95652.00;;;;5111106;28;20230;-69
2023/04/15 11:56:51;;;;;;;3.20;2.30;;;10.10;99.90;11.30;95655.00;;;;5101650;28;20746;-69
2023/04/15 11:59:43;;;;;;;2.43;1.87;;;10.00;99.90;10.90;95660.00;;;;5104675;28;20216;-70
2023/04/15 12:02:37;;;;;;;2.07;1.63;;;9.70;99.90;11.20;95664.00;;;;5104217;28;20222;-70
2023/04/15 12:05:26;;;;;;;2.37;2.17;;;9.70;99.90;11.20;95672.00;;;;5103080;28;20660;-71
2023/04/15 12:08:14;;;;;;;1.67;1.57;;;9.60;99.90;11.50;95678.00;;;;5123104;27;20202;-70
2023/04/15 12:11:03;;;;;;;3.10;2.40;;;9.60;99.90;11.80;95669.00;;;;5121171;27;20225;-69
2023/04/15 12:13:57;;;;;;;2.10;1.87;;;9.70;99.90;11.80;95669.00;;;;5102872;28;20207;-70
2023/04/15 12:16:47;;;;;;;2.57;2.37;;;9.80;99.90;11.90;95673.00;;;;5109884;28;20734;-70
2023/04/15 12:19:40;;;;;;;2.40;2.20;;;9.90;99.90;11.90;95671.00;;;;5101965;28;20248;-70
2023/04/15 12:22:29;;;;;;;1.83;1.73;;;9.90;99.90;12.00;95677.00;;;;5098308;28;20310;-69
2023/04/15 12:25:18;;;;;;;2.40;1.87;;;10.00;99.90;12.00;95683.00;;;;5098387;28;20204;-69
2023/04/15 12:28:12;;;;;;;2.73;1.93;;;10.00;99.90;12.00;95676.00;;;;5103324;28;20205;-70
2023/04/15 12:31:09;;;;;;;3.17;2.07;;;10.10;99.90;11.80;95684.00;;;;5107278;28;20221;-69
2023/04/15 12:34:00;;;;;;;2.30;2.10;;;10.10;99.90;11.80;95691.00;;;;5102749;28;20211;-69
2023/04/15 12:36:49;;;;;;;3.57;2.43;;;10.10;99.90;11.70;95694.00;;;;5101775;28;20199;-69
2023/04/15 12:39:40;;;;;;;2.10;1.90;;;10.10;99.90;11.60;95696.00;;;;5102325;27;20251;-69
2023/04/15 12:42:29;;;;;;;2.37;2.17;;;10.00;99.90;11.20;95706.00;;;;5104633;28;20222;-70
2023/04/15 12:45:17;;;;;;;2.40;2.20;;;9.90;99.90;11.20;95705.00;;;;5126869;27;20846;-71
2023/04/15 12:48:11;;;;;;;2.30;2.10;;;9.80;99.90;11.20;95711.00;;;;5120482;27;20567;-69